sensor_id;sensor_type;location;lat;lon;timestamp;P1;durP1;ratioP1;P2;durP2;ratioP2
48161;SDS011;33950;48.154;16.316;2022-10-15T00:00:24;52.08;;;27.00;;
48161;SDS011;33950;48.154;16.316;2022-10-15T00:03:10;47.67;;;26.58;;
48161;SDS011;33950;48.154;16.316;2022-10-15T00:05:56;47.10;;;25.77;;
48161;SDS011;33950;48.154;16.316;2022-10-15T00:08:47;49.70;;;25.30;;
48161;SDS011;33950;48.154;16.316;2022-10-15T00:11:35;48.50;;;26.38;;
48161;SDS011;33950;48.154;16.316;2022-10-15T00:14:21;46.42;;;23.75;;
48161;SDS011;33950;48.154;16.316;2022-10-15T00:17:07;49.60;;;25.63;;
48161;SDS011;33950;48.154;16.316;2022-10-15T00:19:53;46.88;;;24.63;;
48161;SDS011;33950;48.154;16.316;2022-10-15T00:22:39;47.03;;;25.90;;
48161;SDS011;33950;48.154;16.316;2022-10-15T00:25:25;44.55;;;24.40;;
48161;SDS011;33950;48.154;16.316;2022-10-15T00:28:14;51.38;;;26.95;;
48161;SDS011;33950;48.154;16.316;2022-10-15T00:31:00;51.88;;;25.60;;
48161;SDS011;33950;48.154;16.316;2022-10-15T00:33:48;53.20;;;25.80;;
48161;SDS011;33950;48.154;16.316;2022-10-15T00:36:35;51.08;;;24.85;;
48161;SDS011;33950;48.154;16.316;2022-10-15T00:39:21;47.05;;;24.70;;
48161;SDS011;33950;48.154;16.316;2022-10-15T00:42:08;47.67;;;25.83;;
48161;SDS011;33950;48.154;16.316;2022-10-15T00:44:57;49.85;;;25.50;;
48161;SDS011;33950;48.154;16.316;2022-10-15T00:47:45;49.20;;;25.20;;
48161;SDS011;33950;48.154;16.316;2022-10-15T00:50:33;43.17;;;24.88;;
48161;SDS011;33950;48.154;16.316;2022-10-15T00:53:20;54.50;;;26.48;;
48161;SDS011;33950;48.154;16.316;2022-10-15T00:56:06;46.88;;;26.90;;
48161;SDS011;33950;48.154;16.316;2022-10-15T00:58:53;52.35;;;26.38;;
48161;SDS011;33950;48.154;16.316;2022-10-15T01:01:41;54.60;;;25.85;;
48161;SDS011;33950;48.154;16.316;2022-10-15T01:04:28;49.28;;;24.58;;
48161;SDS011;33950;48.154;16.316;2022-10-15T01:07:15;46.72;;;24.45;;
48161;SDS011;33950;48.154;16.316;2022-10-15T01:10:01;44.95;;;24.35;;
48161;SDS011;33950;48.154;16.316;2022-10-15T01:12:55;46.17;;;22.90;;
48161;SDS011;33950;48.154;16.316;2022-10-15T01:15:47;39.72;;;23.15;;
48161;SDS011;33950;48.154;16.316;2022-10-15T01:21:30;51.53;;;26.10;;
48161;SDS011;33950;48.154;16.316;2022-10-15T01:24:26;55.05;;;26.13;;
48161;SDS011;33950;48.154;16.316;2022-10-15T01:27:31;48.20;;;26.67;;
48161;SDS011;33950;48.154;16.316;2022-10-15T01:30:23;56.67;;;28.92;;
48161;SDS011;33950;48.154;16.316;2022-10-15T01:33:21;55.13;;;28.20;;
48161;SDS011;33950;48.154;16.316;2022-10-15T01:36:14;59.15;;;28.67;;
48161;SDS011;33950;48.154;16.316;2022-10-15T01:39:04;53.67;;;26.98;;
48161;SDS011;33950;48.154;16.316;2022-10-15T01:41:57;48.63;;;26.63;;
48161;SDS011;33950;48.154;16.316;2022-10-15T01:44:46;45.75;;;24.50;;
48161;SDS011;33950;48.154;16.316;2022-10-15T01:47:38;48.67;;;26.40;;
48161;SDS011;33950;48.154;16.316;2022-10-15T01:50:28;56.22;;;27.00;;
48161;SDS011;33950;48.154;16.316;2022-10-15T01:53:18;53.10;;;27.08;;
48161;SDS011;33950;48.154;16.316;2022-10-15T01:56:11;56.35;;;28.95;;
48161;SDS011;33950;48.154;16.316;2022-10-15T01:59:02;54.05;;;28.05;;
48161;SDS011;33950;48.154;16.316;2022-10-15T02:01:49;53.67;;;27.98;;
48161;SDS011;33950;48.154;16.316;2022-10-15T02:04:37;53.38;;;27.15;;
48161;SDS011;33950;48.154;16.316;2022-10-15T02:07:25;54.80;;;27.45;;
48161;SDS011;33950;48.154;16.316;2022-10-15T02:10:24;45.47;;;24.83;;
48161;SDS011;33950;48.154;16.316;2022-10-15T02:13:17;44.97;;;24.65;;
48161;SDS011;33950;48.154;16.316;2022-10-15T02:16:12;45.08;;;25.23;;
48161;SDS011;33950;48.154;16.316;2022-10-15T02:19:06;47.72;;;26.40;;
48161;SDS011;33950;48.154;16.316;2022-10-15T02:22:00;47.88;;;25.95;;
48161;SDS011;33950;48.154;16.316;2022-10-15T02:24:52;46.47;;;26.52;;
48161;SDS011;33950;48.154;16.316;2022-10-15T02:27:41;45.72;;;25.60;;
48161;SDS011;33950;48.154;16.316;2022-10-15T02:30:31;43.88;;;25.42;;
48161;SDS011;33950;48.154;16.316;2022-10-15T02:33:19;50.08;;;26.35;;
48161;SDS011;33950;48.154;16.316;2022-10-15T02:36:06;42.72;;;24.75;;
48161;SDS011;33950;48.154;16.316;2022-10-15T02:38:54;46.92;;;25.35;;
48161;SDS011;33950;48.154;16.316;2022-10-15T02:41:43;57.40;;;28.08;;
48161;SDS011;33950;48.154;16.316;2022-10-15T02:44:30;56.22;;;29.60;;
48161;SDS011;33950;48.154;16.316;2022-10-15T02:47:16;61.10;;;28.70;;
48161;SDS011;33950;48.154;16.316;2022-10-15T02:50:03;55.22;;;27.58;;
48161;SDS011;33950;48.154;16.316;2022-10-15T02:52:49;53.20;;;28.50;;
48161;SDS011;33950;48.154;16.316;2022-10-15T02:55:37;53.03;;;27.80;;
48161;SDS011;33950;48.154;16.316;2022-10-15T02:58:23;53.20;;;27.17;;
48161;SDS011;33950;48.154;16.316;2022-10-15T03:01:10;57.47;;;27.35;;
48161;SDS011;33950;48.154;16.316;2022-10-15T03:03:56;55.78;;;28.35;;
48161;SDS011;33950;48.154;16.316;2022-10-15T03:06:42;52.25;;;27.63;;
48161;SDS011;33950;48.154;16.316;2022-10-15T03:09:28;49.60;;;27.50;;
48161;SDS011;33950;48.154;16.316;2022-10-15T03:12:15;52.00;;;25.92;;
48161;SDS011;33950;48.154;16.316;2022-10-15T03:15:02;50.13;;;26.20;;
48161;SDS011;33950;48.154;16.316;2022-10-15T03:17:48;51.55;;;28.35;;
48161;SDS011;33950;48.154;16.316;2022-10-15T03:20:34;53.05;;;30.73;;
48161;SDS011;33950;48.154;16.316;2022-10-15T03:23:21;56.80;;;30.65;;
48161;SDS011;33950;48.154;16.316;2022-10-15T03:26:07;52.97;;;30.50;;
48161;SDS011;33950;48.154;16.316;2022-10-15T03:28:54;52.92;;;29.05;;
48161;SDS011;33950;48.154;16.316;2022-10-15T03:31:40;54.63;;;30.25;;
48161;SDS011;33950;48.154;16.316;2022-10-15T03:34:26;59.30;;;29.77;;
48161;SDS011;33950;48.154;16.316;2022-10-15T03:37:12;51.67;;;28.13;;
48161;SDS011;33950;48.154;16.316;2022-10-15T03:39:58;53.97;;;26.20;;
48161;SDS011;33950;48.154;16.316;2022-10-15T03:42:48;52.25;;;28.48;;
48161;SDS011;33950;48.154;16.316;2022-10-15T03:45:37;54.85;;;29.15;;
48161;SDS011;33950;48.154;16.316;2022-10-15T03:48:23;54.13;;;28.60;;
48161;SDS011;33950;48.154;16.316;2022-10-15T03:51:09;55.17;;;28.80;;
48161;SDS011;33950;48.154;16.316;2022-10-15T03:53:55;58.85;;;29.98;;
48161;SDS011;33950;48.154;16.316;2022-10-15T03:56:41;57.17;;;30.00;;
48161;SDS011;33950;48.154;16.316;2022-10-15T03:59:27;56.30;;;29.73;;
48161;SDS011;33950;48.154;16.316;2022-10-15T04:02:15;66.75;;;30.65;;
48161;SDS011;33950;48.154;16.316;2022-10-15T04:05:01;60.55;;;31.55;;
48161;SDS011;33950;48.154;16.316;2022-10-15T04:07:47;62.13;;;31.00;;
48161;SDS011;33950;48.154;16.316;2022-10-15T04:10:34;68.72;;;31.83;;
48161;SDS011;33950;48.154;16.316;2022-10-15T04:13:20;59.88;;;32.30;;
48161;SDS011;33950;48.154;16.316;2022-10-15T04:16:06;60.15;;;31.17;;
48161;SDS011;33950;48.154;16.316;2022-10-15T04:18:53;51.95;;;28.88;;
48161;SDS011;33950;48.154;16.316;2022-10-15T04:21:39;61.17;;;29.38;;
48161;SDS011;33950;48.154;16.316;2022-10-15T04:24:25;53.83;;;28.92;;
48161;SDS011;33950;48.154;16.316;2022-10-15T04:27:12;53.65;;;27.98;;
48161;SDS011;33950;48.154;16.316;2022-10-15T04:29:58;51.75;;;27.15;;
48161;SDS011;33950;48.154;16.316;2022-10-15T04:32:44;65.38;;;31.02;;
48161;SDS011;33950;48.154;16.316;2022-10-15T04:35:32;50.67;;;27.92;;
48161;SDS011;33950;48.154;16.316;2022-10-15T04:38:19;55.47;;;29.15;;
48161;SDS011;33950;48.154;16.316;2022-10-15T04:41:06;60.88;;;31.75;;
48161;SDS011;33950;48.154;16.316;2022-10-15T04:43:53;54.63;;;31.10;;
48161;SDS011;33950;48.154;16.316;2022-10-15T04:46:39;55.05;;;30.38;;
48161;SDS011;33950;48.154;16.316;2022-10-15T04:49:26;53.30;;;29.70;;
48161;SDS011;33950;48.154;16.316;2022-10-15T04:52:13;66.10;;;33.70;;
48161;SDS011;33950;48.154;16.316;2022-10-15T04:54:59;53.95;;;29.48;;
48161;SDS011;33950;48.154;16.316;2022-10-15T04:57:47;49.70;;;27.15;;
48161;SDS011;33950;48.154;16.316;2022-10-15T05:00:33;63.95;;;31.35;;
48161;SDS011;33950;48.154;16.316;2022-10-15T05:03:19;58.65;;;31.65;;
48161;SDS011;33950;48.154;16.316;2022-10-15T05:06:06;60.63;;;30.15;;
48161;SDS011;33950;48.154;16.316;2022-10-15T05:08:54;60.58;;;30.48;;
48161;SDS011;33950;48.154;16.316;2022-10-15T05:11:40;53.33;;;30.08;;
48161;SDS011;33950;48.154;16.316;2022-10-15T05:14:26;49.17;;;28.50;;
48161;SDS011;33950;48.154;16.316;2022-10-15T05:17:12;51.67;;;28.95;;
48161;SDS011;33950;48.154;16.316;2022-10-15T05:19:58;53.65;;;30.23;;
48161;SDS011;33950;48.154;16.316;2022-10-15T05:22:44;61.95;;;30.95;;
48161;SDS011;33950;48.154;16.316;2022-10-15T05:25:32;70.38;;;35.75;;
48161;SDS011;33950;48.154;16.316;2022-10-15T05:28:18;66.45;;;36.17;;
48161;SDS011;33950;48.154;16.316;2022-10-15T05:31:04;66.88;;;36.72;;
48161;SDS011;33950;48.154;16.316;2022-10-15T05:33:52;70.32;;;36.83;;
48161;SDS011;33950;48.154;16.316;2022-10-15T05:36:38;67.10;;;35.38;;
48161;SDS011;33950;48.154;16.316;2022-10-15T05:39:25;67.13;;;38.58;;
48161;SDS011;33950;48.154;16.316;2022-10-15T05:42:12;71.43;;;38.08;;
48161;SDS011;33950;48.154;16.316;2022-10-15T05:44:58;62.88;;;36.40;;
48161;SDS011;33950;48.154;16.316;2022-10-15T05:47:44;73.88;;;37.97;;
48161;SDS011;33950;48.154;16.316;2022-10-15T05:50:30;71.57;;;35.17;;
48161;SDS011;33950;48.154;16.316;2022-10-15T05:53:17;74.50;;;38.05;;
48161;SDS011;33950;48.154;16.316;2022-10-15T05:56:03;80.20;;;39.35;;
48161;SDS011;33950;48.154;16.316;2022-10-15T05:58:51;67.78;;;39.40;;
48161;SDS011;33950;48.154;16.316;2022-10-15T06:01:37;69.65;;;40.15;;
48161;SDS011;33950;48.154;16.316;2022-10-15T06:04:23;74.68;;;41.20;;
48161;SDS011;33950;48.154;16.316;2022-10-15T06:07:09;80.57;;;43.15;;
48161;SDS011;33950;48.154;16.316;2022-10-15T06:09:55;77.80;;;40.35;;
48161;SDS011;33950;48.154;16.316;2022-10-15T06:12:42;75.50;;;41.92;;
48161;SDS011;33950;48.154;16.316;2022-10-15T06:15:37;82.65;;;43.55;;
48161;SDS011;33950;48.154;16.316;2022-10-15T06:18:23;81.20;;;43.42;;
48161;SDS011;33950;48.154;16.316;2022-10-15T06:21:10;82.20;;;44.05;;
48161;SDS011;33950;48.154;16.316;2022-10-15T06:23:56;90.85;;;46.55;;
48161;SDS011;33950;48.154;16.316;2022-10-15T06:26:43;84.18;;;44.42;;
48161;SDS011;33950;48.154;16.316;2022-10-15T06:29:29;83.40;;;44.58;;
48161;SDS011;33950;48.154;16.316;2022-10-15T06:32:16;90.45;;;43.85;;
48161;SDS011;33950;48.154;16.316;2022-10-15T06:35:02;88.32;;;45.25;;
48161;SDS011;33950;48.154;16.316;2022-10-15T06:37:49;84.03;;;45.78;;
48161;SDS011;33950;48.154;16.316;2022-10-15T06:40:36;94.50;;;47.60;;
48161;SDS011;33950;48.154;16.316;2022-10-15T06:43:23;83.78;;;44.65;;
48161;SDS011;33950;48.154;16.316;2022-10-15T06:46:09;88.35;;;45.50;;
48161;SDS011;33950;48.154;16.316;2022-10-15T06:48:57;90.88;;;45.03;;
48161;SDS011;33950;48.154;16.316;2022-10-15T06:51:43;86.85;;;47.35;;
48161;SDS011;33950;48.154;16.316;2022-10-15T06:54:29;85.97;;;47.17;;
48161;SDS011;33950;48.154;16.316;2022-10-15T06:57:15;95.20;;;48.45;;
48161;SDS011;33950;48.154;16.316;2022-10-15T07:00:02;83.43;;;45.05;;
48161;SDS011;33950;48.154;16.316;2022-10-15T07:02:48;88.00;;;49.10;;
48161;SDS011;33950;48.154;16.316;2022-10-15T07:05:36;94.88;;;47.40;;
48161;SDS011;33950;48.154;16.316;2022-10-15T07:08:23;86.93;;;47.75;;
48161;SDS011;33950;48.154;16.316;2022-10-15T07:11:10;83.20;;;47.72;;
48161;SDS011;33950;48.154;16.316;2022-10-15T07:13:56;83.57;;;46.38;;
48161;SDS011;33950;48.154;16.316;2022-10-15T07:16:42;88.03;;;46.45;;
48161;SDS011;33950;48.154;16.316;2022-10-15T07:19:28;81.43;;;46.70;;
48161;SDS011;33950;48.154;16.316;2022-10-15T07:22:16;82.30;;;43.83;;
48161;SDS011;33950;48.154;16.316;2022-10-15T07:25:02;83.68;;;45.90;;
48161;SDS011;33950;48.154;16.316;2022-10-15T07:27:48;86.30;;;45.03;;
48161;SDS011;33950;48.154;16.316;2022-10-15T07:30:34;95.88;;;49.88;;
48161;SDS011;33950;48.154;16.316;2022-10-15T07:33:20;85.60;;;47.28;;
48161;SDS011;33950;48.154;16.316;2022-10-15T07:36:07;95.15;;;49.90;;
48161;SDS011;33950;48.154;16.316;2022-10-15T07:38:56;92.20;;;49.70;;
48161;SDS011;33950;48.154;16.316;2022-10-15T07:41:42;100.00;;;51.00;;
48161;SDS011;33950;48.154;16.316;2022-10-15T07:44:29;83.53;;;43.60;;
48161;SDS011;33950;48.154;16.316;2022-10-15T07:47:15;89.07;;;47.10;;
48161;SDS011;33950;48.154;16.316;2022-10-15T07:50:01;90.72;;;49.38;;
48161;SDS011;33950;48.154;16.316;2022-10-15T07:52:47;86.35;;;47.40;;
48161;SDS011;33950;48.154;16.316;2022-10-15T07:55:34;89.10;;;48.90;;
48161;SDS011;33950;48.154;16.316;2022-10-15T07:58:21;84.10;;;48.67;;
48161;SDS011;33950;48.154;16.316;2022-10-15T08:01:07;81.38;;;45.28;;
48161;SDS011;33950;48.154;16.316;2022-10-15T08:03:54;93.40;;;46.10;;
48161;SDS011;33950;48.154;16.316;2022-10-15T08:06:40;91.88;;;48.63;;
48161;SDS011;33950;48.154;16.316;2022-10-15T08:09:26;87.45;;;47.25;;
48161;SDS011;33950;48.154;16.316;2022-10-15T08:12:14;92.60;;;50.25;;
48161;SDS011;33950;48.154;16.316;2022-10-15T08:15:00;81.95;;;46.85;;
48161;SDS011;33950;48.154;16.316;2022-10-15T08:17:46;85.30;;;47.95;;
48161;SDS011;33950;48.154;16.316;2022-10-15T08:20:32;87.13;;;48.78;;
48161;SDS011;33950;48.154;16.316;2022-10-15T08:23:18;94.53;;;49.80;;
48161;SDS011;33950;48.154;16.316;2022-10-15T08:26:04;85.63;;;49.28;;
48161;SDS011;33950;48.154;16.316;2022-10-15T08:28:52;85.35;;;46.85;;
48161;SDS011;33950;48.154;16.316;2022-10-15T08:31:38;93.18;;;49.70;;
48161;SDS011;33950;48.154;16.316;2022-10-15T08:34:25;80.13;;;46.50;;
48161;SDS011;33950;48.154;16.316;2022-10-15T08:37:11;87.47;;;49.78;;
48161;SDS011;33950;48.154;16.316;2022-10-15T08:39:57;85.32;;;49.33;;
48161;SDS011;33950;48.154;16.316;2022-10-15T08:42:44;89.40;;;47.80;;
48161;SDS011;33950;48.154;16.316;2022-10-15T08:45:33;86.25;;;48.20;;
48161;SDS011;33950;48.154;16.316;2022-10-15T08:48:27;89.75;;;49.60;;
48161;SDS011;33950;48.154;16.316;2022-10-15T08:51:16;82.35;;;47.55;;
48161;SDS011;33950;48.154;16.316;2022-10-15T08:54:03;80.13;;;46.50;;
48161;SDS011;33950;48.154;16.316;2022-10-15T08:56:52;80.68;;;46.75;;
48161;SDS011;33950;48.154;16.316;2022-10-15T08:59:49;85.45;;;47.90;;
48161;SDS011;33950;48.154;16.316;2022-10-15T09:02:45;86.65;;;48.45;;
48161;SDS011;33950;48.154;16.316;2022-10-15T09:05:40;94.60;;;49.42;;
48161;SDS011;33950;48.154;16.316;2022-10-15T09:08:35;87.22;;;47.60;;
48161;SDS011;33950;48.154;16.316;2022-10-15T09:11:31;90.28;;;48.50;;
48161;SDS011;33950;48.154;16.316;2022-10-15T09:14:27;87.50;;;47.05;;
48161;SDS011;33950;48.154;16.316;2022-10-15T09:17:18;90.13;;;47.78;;
48161;SDS011;33950;48.154;16.316;2022-10-15T09:20:13;88.55;;;46.47;;
48161;SDS011;33950;48.154;16.316;2022-10-15T09:23:02;82.32;;;46.00;;
48161;SDS011;33950;48.154;16.316;2022-10-15T09:25:57;84.28;;;46.30;;
48161;SDS011;33950;48.154;16.316;2022-10-15T09:31:39;75.03;;;45.50;;
48161;SDS011;33950;48.154;16.316;2022-10-15T09:34:31;84.80;;;46.05;;
48161;SDS011;33950;48.154;16.316;2022-10-15T09:37:26;81.03;;;46.10;;
48161;SDS011;33950;48.154;16.316;2022-10-15T09:40:24;82.53;;;45.92;;
48161;SDS011;33950;48.154;16.316;2022-10-15T09:43:15;81.40;;;45.22;;
48161;SDS011;33950;48.154;16.316;2022-10-15T09:46:11;81.55;;;45.78;;
48161;SDS011;33950;48.154;16.316;2022-10-15T09:49:00;82.47;;;44.45;;
48161;SDS011;33950;48.154;16.316;2022-10-15T09:51:56;74.00;;;43.17;;
48161;SDS011;33950;48.154;16.316;2022-10-15T09:54:53;78.43;;;44.58;;
48161;SDS011;33950;48.154;16.316;2022-10-15T09:57:47;75.60;;;43.78;;
48161;SDS011;33950;48.154;16.316;2022-10-15T10:00:55;74.80;;;43.78;;
48161;SDS011;33950;48.154;16.316;2022-10-15T10:03:42;72.35;;;42.55;;
48161;SDS011;33950;48.154;16.316;2022-10-15T10:06:29;77.15;;;43.03;;
48161;SDS011;33950;48.154;16.316;2022-10-15T10:09:16;74.32;;;42.15;;
48161;SDS011;33950;48.154;16.316;2022-10-15T10:12:06;73.97;;;41.40;;
48161;SDS011;33950;48.154;16.316;2022-10-15T10:15:04;69.88;;;41.38;;
48161;SDS011;33950;48.154;16.316;2022-10-15T10:17:54;70.35;;;41.15;;
48161;SDS011;33950;48.154;16.316;2022-10-15T10:20:50;74.45;;;41.72;;
48161;SDS011;33950;48.154;16.316;2022-10-15T10:23:43;69.57;;;41.20;;
48161;SDS011;33950;48.154;16.316;2022-10-15T10:26:32;66.03;;;39.83;;
48161;SDS011;33950;48.154;16.316;2022-10-15T10:29:21;83.80;;;44.60;;
48161;SDS011;33950;48.154;16.316;2022-10-15T10:32:09;79.55;;;43.13;;
48161;SDS011;33950;48.154;16.316;2022-10-15T10:34:57;83.20;;;45.88;;
48161;SDS011;33950;48.154;16.316;2022-10-15T10:37:44;77.50;;;44.53;;
48161;SDS011;33950;48.154;16.316;2022-10-15T10:40:31;74.20;;;42.78;;
48161;SDS011;33950;48.154;16.316;2022-10-15T10:43:24;74.03;;;42.88;;
48161;SDS011;33950;48.154;16.316;2022-10-15T10:46:17;78.70;;;44.28;;
48161;SDS011;33950;48.154;16.316;2022-10-15T10:49:05;67.97;;;42.05;;
48161;SDS011;33950;48.154;16.316;2022-10-15T10:51:53;77.63;;;43.72;;
48161;SDS011;33950;48.154;16.316;2022-10-15T10:54:39;80.00;;;43.95;;
48161;SDS011;33950;48.154;16.316;2022-10-15T10:57:27;75.50;;;42.88;;
48161;SDS011;33950;48.154;16.316;2022-10-15T11:00:21;71.93;;;43.15;;
48161;SDS011;33950;48.154;16.316;2022-10-15T11:03:19;68.95;;;40.70;;
48161;SDS011;33950;48.154;16.316;2022-10-15T11:09:34;73.03;;;37.38;;
48161;SDS011;33950;48.154;16.316;2022-10-15T11:12:43;66.57;;;36.83;;
48161;SDS011;33950;48.154;16.316;2022-10-15T11:18:36;62.10;;;35.28;;
48161;SDS011;33950;48.154;16.316;2022-10-15T11:21:38;64.88;;;38.10;;
48161;SDS011;33950;48.154;16.316;2022-10-15T11:24:34;71.35;;;39.50;;
48161;SDS011;33950;48.154;16.316;2022-10-15T11:27:32;71.13;;;39.00;;
48161;SDS011;33950;48.154;16.316;2022-10-15T11:30:33;74.45;;;40.35;;
48161;SDS011;33950;48.154;16.316;2022-10-15T11:33:30;72.93;;;40.35;;
48161;SDS011;33950;48.154;16.316;2022-10-15T11:36:35;76.40;;;40.30;;
48161;SDS011;33950;48.154;16.316;2022-10-15T11:42:52;72.40;;;38.30;;
48161;SDS011;33950;48.154;16.316;2022-10-15T11:45:50;80.28;;;42.15;;
48161;SDS011;33950;48.154;16.316;2022-10-15T11:51:38;80.75;;;39.47;;
48161;SDS011;33950;48.154;16.316;2022-10-15T11:54:46;84.28;;;43.90;;
48161;SDS011;33950;48.154;16.316;2022-10-15T11:57:38;91.07;;;46.17;;
48161;SDS011;33950;48.154;16.316;2022-10-15T12:00:29;79.20;;;40.38;;
48161;SDS011;33950;48.154;16.316;2022-10-15T12:03:20;81.13;;;40.08;;
48161;SDS011;33950;48.154;16.316;2022-10-15T12:06:12;74.00;;;38.90;;
48161;SDS011;33950;48.154;16.316;2022-10-15T12:09:02;82.07;;;41.58;;
48161;SDS011;33950;48.154;16.316;2022-10-15T12:11:50;86.72;;;41.08;;
48161;SDS011;33950;48.154;16.316;2022-10-15T12:17:34;74.60;;;37.92;;
48161;SDS011;33950;48.154;16.316;2022-10-15T12:20:26;72.63;;;38.67;;
48161;SDS011;33950;48.154;16.316;2022-10-15T12:23:22;87.93;;;39.10;;
48161;SDS011;33950;48.154;16.316;2022-10-15T12:26:25;76.40;;;38.47;;
48161;SDS011;33950;48.154;16.316;2022-10-15T12:29:19;90.57;;;44.53;;
48161;SDS011;33950;48.154;16.316;2022-10-15T12:32:17;91.22;;;43.45;;
48161;SDS011;33950;48.154;16.316;2022-10-15T12:35:17;81.75;;;42.10;;
48161;SDS011;33950;48.154;16.316;2022-10-15T12:38:10;92.85;;;42.33;;
48161;SDS011;33950;48.154;16.316;2022-10-15T12:41:06;85.93;;;42.60;;
48161;SDS011;33950;48.154;16.316;2022-10-15T12:44:03;84.57;;;43.25;;
48161;SDS011;33950;48.154;16.316;2022-10-15T12:46:51;92.05;;;44.22;;
48161;SDS011;33950;48.154;16.316;2022-10-15T12:52:58;103.68;;;47.55;;
48161;SDS011;33950;48.154;16.316;2022-10-15T12:55:46;100.82;;;48.40;;
48161;SDS011;33950;48.154;16.316;2022-10-15T13:02:28;109.20;;;46.92;;
48161;SDS011;33950;48.154;16.316;2022-10-15T13:05:24;103.45;;;48.75;;
48161;SDS011;33950;48.154;16.316;2022-10-15T13:08:12;101.55;;;49.78;;
48161;SDS011;33950;48.154;16.316;2022-10-15T13:11:03;101.45;;;48.95;;
48161;SDS011;33950;48.154;16.316;2022-10-15T13:13:53;104.72;;;49.75;;
48161;SDS011;33950;48.154;16.316;2022-10-15T13:16:43;108.57;;;51.38;;
48161;SDS011;33950;48.154;16.316;2022-10-15T13:19:33;108.35;;;51.38;;
48161;SDS011;33950;48.154;16.316;2022-10-15T13:22:22;105.40;;;50.55;;
48161;SDS011;33950;48.154;16.316;2022-10-15T13:25:14;101.45;;;49.42;;
48161;SDS011;33950;48.154;16.316;2022-10-15T13:28:01;115.27;;;52.20;;
48161;SDS011;33950;48.154;16.316;2022-10-15T13:31:05;106.57;;;51.83;;
48161;SDS011;33950;48.154;16.316;2022-10-15T13:33:57;126.70;;;54.75;;
48161;SDS011;33950;48.154;16.316;2022-10-15T13:36:47;118.43;;;55.13;;
48161;SDS011;33950;48.154;16.316;2022-10-15T13:39:34;104.75;;;52.95;;
48161;SDS011;33950;48.154;16.316;2022-10-15T13:42:23;124.65;;;53.72;;
48161;SDS011;33950;48.154;16.316;2022-10-15T13:45:14;122.40;;;53.22;;
48161;SDS011;33950;48.154;16.316;2022-10-15T13:48:09;136.95;;;59.70;;
48161;SDS011;33950;48.154;16.316;2022-10-15T13:50:57;127.05;;;54.03;;
48161;SDS011;33950;48.154;16.316;2022-10-15T13:53:44;122.88;;;55.15;;
48161;SDS011;33950;48.154;16.316;2022-10-15T13:56:30;119.03;;;54.95;;
48161;SDS011;33950;48.154;16.316;2022-10-15T13:59:17;121.90;;;56.65;;
48161;SDS011;33950;48.154;16.316;2022-10-15T14:02:09;121.32;;;55.10;;
48161;SDS011;33950;48.154;16.316;2022-10-15T14:05:12;123.25;;;55.78;;
48161;SDS011;33950;48.154;16.316;2022-10-15T14:08:00;134.65;;;55.97;;
48161;SDS011;33950;48.154;16.316;2022-10-15T14:10:46;132.45;;;54.10;;
48161;SDS011;33950;48.154;16.316;2022-10-15T14:13:33;135.55;;;54.45;;
48161;SDS011;33950;48.154;16.316;2022-10-15T14:16:20;115.80;;;54.10;;
48161;SDS011;33950;48.154;16.316;2022-10-15T14:19:10;117.75;;;52.67;;
48161;SDS011;33950;48.154;16.316;2022-10-15T14:22:02;136.32;;;56.88;;
48161;SDS011;33950;48.154;16.316;2022-10-15T14:24:48;119.45;;;54.15;;
48161;SDS011;33950;48.154;16.316;2022-10-15T14:27:36;126.70;;;55.80;;
48161;SDS011;33950;48.154;16.316;2022-10-15T14:30:24;137.98;;;57.83;;
48161;SDS011;33950;48.154;16.316;2022-10-15T14:33:31;141.73;;;58.22;;
48161;SDS011;33950;48.154;16.316;2022-10-15T14:36:28;139.27;;;57.95;;
48161;SDS011;33950;48.154;16.316;2022-10-15T14:39:27;156.68;;;59.83;;
48161;SDS011;33950;48.154;16.316;2022-10-15T14:42:25;139.73;;;56.75;;
48161;SDS011;33950;48.154;16.316;2022-10-15T14:45:13;114.07;;;52.80;;
48161;SDS011;33950;48.154;16.316;2022-10-15T14:48:07;116.72;;;54.20;;
48161;SDS011;33950;48.154;16.316;2022-10-15T14:50:56;121.90;;;53.70;;
48161;SDS011;33950;48.154;16.316;2022-10-15T14:53:44;134.50;;;56.47;;
48161;SDS011;33950;48.154;16.316;2022-10-15T14:56:32;137.35;;;58.85;;
48161;SDS011;33950;48.154;16.316;2022-10-15T14:59:18;155.30;;;62.78;;
48161;SDS011;33950;48.154;16.316;2022-10-15T15:02:09;151.35;;;61.20;;
48161;SDS011;33950;48.154;16.316;2022-10-15T15:05:05;137.85;;;61.08;;
48161;SDS011;33950;48.154;16.316;2022-10-15T15:07:53;160.32;;;63.78;;
48161;SDS011;33950;48.154;16.316;2022-10-15T15:10:41;157.10;;;62.45;;
48161;SDS011;33950;48.154;16.316;2022-10-15T15:13:30;174.77;;;70.72;;
48161;SDS011;33950;48.154;16.316;2022-10-15T15:16:21;148.10;;;61.35;;
48161;SDS011;33950;48.154;16.316;2022-10-15T15:19:07;161.55;;;62.60;;
48161;SDS011;33950;48.154;16.316;2022-10-15T15:21:53;173.70;;;66.30;;
48161;SDS011;33950;48.154;16.316;2022-10-15T15:24:40;130.80;;;57.20;;
48161;SDS011;33950;48.154;16.316;2022-10-15T15:27:27;137.70;;;61.20;;
48161;SDS011;33950;48.154;16.316;2022-10-15T15:30:17;142.57;;;60.22;;
48161;SDS011;33950;48.154;16.316;2022-10-15T15:33:06;128.48;;;57.83;;
48161;SDS011;33950;48.154;16.316;2022-10-15T15:35:54;130.98;;;61.05;;
48161;SDS011;33950;48.154;16.316;2022-10-15T15:38:45;135.60;;;59.10;;
48161;SDS011;33950;48.154;16.316;2022-10-15T15:41:31;109.60;;;53.60;;
48161;SDS011;33950;48.154;16.316;2022-10-15T15:44:18;117.43;;;54.78;;
48161;SDS011;33950;48.154;16.316;2022-10-15T15:47:05;116.22;;;54.53;;
48161;SDS011;33950;48.154;16.316;2022-10-15T15:49:51;113.05;;;54.13;;
48161;SDS011;33950;48.154;16.316;2022-10-15T15:52:37;136.00;;;59.78;;
48161;SDS011;33950;48.154;16.316;2022-10-15T15:55:24;122.63;;;56.50;;
48161;SDS011;33950;48.154;16.316;2022-10-15T15:58:10;125.30;;;57.95;;
48161;SDS011;33950;48.154;16.316;2022-10-15T16:00:56;131.20;;;57.80;;
48161;SDS011;33950;48.154;16.316;2022-10-15T16:03:43;137.43;;;61.30;;
48161;SDS011;33950;48.154;16.316;2022-10-15T16:06:30;146.00;;;60.13;;
48161;SDS011;33950;48.154;16.316;2022-10-15T16:09:16;155.15;;;65.10;;
48161;SDS011;33950;48.154;16.316;2022-10-15T16:12:03;138.80;;;64.05;;
48161;SDS011;33950;48.154;16.316;2022-10-15T16:14:49;143.43;;;62.72;;
48161;SDS011;33950;48.154;16.316;2022-10-15T16:17:35;139.43;;;63.03;;
48161;SDS011;33950;48.154;16.316;2022-10-15T16:20:23;144.63;;;62.42;;
48161;SDS011;33950;48.154;16.316;2022-10-15T16:23:09;124.80;;;60.65;;
48161;SDS011;33950;48.154;16.316;2022-10-15T16:25:55;141.13;;;64.30;;
48161;SDS011;33950;48.154;16.316;2022-10-15T16:28:42;156.77;;;65.88;;
48161;SDS011;33950;48.154;16.316;2022-10-15T16:31:28;144.45;;;63.53;;
48161;SDS011;33950;48.154;16.316;2022-10-15T16:34:15;150.52;;;64.32;;
48161;SDS011;33950;48.154;16.316;2022-10-15T16:37:03;153.52;;;66.63;;
48161;SDS011;33950;48.154;16.316;2022-10-15T16:39:49;142.95;;;62.67;;